.
WxDataArchive / Data Records for 2009-12-26
2009-12-25 December 2009 2009-12-27

Data Records for Saturday, 26 December 2009

Time	Temp	Chill	HIndex	Humid	Dewpt	 Wind 	HiWind	WindDir	Rain 	Barom 
-----	----	-----	------	-----	-----	------	------	-------	-----	----- 
00:00	30.0	25.8	30.0	68	20.7	4	12	248	0.00	29.825 
00:05	30.0	30.0	30.0	66	20.0	3	12	248	0.00	29.825 
00:10	29.8	29.8	29.8	67	20.2	2	7	248	0.00	29.825 
00:15	29.8	25.5	29.8	65	19.5	4	9	248	0.00	29.823 
00:20	29.8	29.8	29.8	65	19.5	3	9	248	0.00	29.823 
00:25	29.8	29.8	29.8	65	19.5	2	13	248	0.00	29.823 
00:30	29.8	29.8	29.8	64	19.1	2	7	248	0.00	29.817 
00:35	29.8	29.8	29.8	64	19.1	2	6	248	0.00	29.817 
00:40	29.8	29.8	29.8	65	19.5	2	11	248	0.00	29.817 
00:45	29.8	29.8	29.8	66	19.8	2	7	248	0.00	29.825 
00:50	29.8	29.8	29.8	65	19.5	2	6	248	0.00	29.825 
00:55	29.8	29.8	29.8	67	20.2	2	6	248	0.00	29.825 
01:00	29.7	29.7	29.7	68	20.5	1	3	248	0.00	29.821 
01:05	29.5	29.5	29.5	68	20.3	1	5	270	0.00	29.821 
01:10	29.5	29.5	29.5	70	20.9	1	6	248	0.00	29.821 
01:15	29.4	29.4	29.4	70	20.8	1	5	90	0.00	29.825 
01:20	29.4	29.4	29.4	71	21.2	1	3	315	0.00	29.825 
01:25	29.4	29.4	29.4	71	21.2	2	7	270	0.00	29.825 
01:30	29.4	29.4	29.4	72	21.5	1	4	22	0.00	29.827 
01:35	29.4	29.4	29.4	71	21.2	1	5	292	0.00	29.827 
01:40	29.4	29.4	29.4	72	21.5	1	4	112	0.00	29.827 
01:45	29.4	29.4	29.4	72	21.5	1	4	112	0.00	29.826 
01:50	29.4	29.4	29.4	72	21.5	1	5	112	0.00	29.826 
01:55	29.3	29.3	29.3	72	21.4	1	5	135	0.00	29.826 
02:00	29.1	29.1	29.1	72	21.2	1	6	90	0.00	29.826 
02:05	29.0	29.0	29.0	73	21.4	1	4	90	0.00	29.826 
02:10	28.8	28.8	28.8	73	21.3	1	4	90	0.00	29.826 
02:15	28.7	28.7	28.7	74	21.5	1	3	68	0.00	29.828 
02:20	28.5	28.5	28.5	75	21.6	1	4	68	0.00	29.828 
02:25	28.4	28.4	28.4	75	21.5	1	3	135	0.00	29.828 
02:30	28.4	28.4	28.4	75	21.5	1	4	90	0.00	29.836 
02:35	28.4	28.4	28.4	75	21.5	0	2	90	0.00	29.836 
02:40	28.4	28.4	28.4	75	21.5	1	3	112	0.00	29.836 
02:45	28.4	28.4	28.4	75	21.5	1	3	112	0.00	29.838 
02:50	28.4	28.4	28.4	74	21.2	2	6	112	0.00	29.838 
02:55	28.5	28.5	28.5	73	21.0	1	4	112	0.00	29.838 
03:00	28.7	28.7	28.7	73	21.2	1	3	112	0.00	29.835 
03:05	28.5	28.5	28.5	73	21.0	1	5	112	0.00	29.835 
03:10	28.7	28.7	28.7	73	21.2	2	6	90	0.00	29.835 
03:15	28.7	28.7	28.7	73	21.2	1	4	90	0.00	29.838 
03:20	28.5	28.5	28.5	73	21.0	1	3	68	0.00	29.838 
03:25	28.5	28.5	28.5	73	21.0	1	3	135	0.00	29.838 
03:30	28.7	28.7	28.7	72	20.8	1	5	135	0.00	29.835 
03:35	28.7	28.7	28.7	72	20.8	1	4	90	0.00	29.835 
03:40	28.7	28.7	28.7	72	20.8	2	6	90	0.00	29.835 
03:45	28.8	28.8	28.8	72	20.9	1	4	90	0.00	29.836 
03:50	28.8	28.8	28.8	73	21.3	1	4	112	0.00	29.836 
03:55	29.0	29.0	29.0	73	21.4	2	5	90	0.00	29.836 
04:00	29.1	29.1	29.1	73	21.5	2	6	112	0.00	29.832 
04:05	29.4	29.4	29.4	74	22.2	2	6	90	0.00	29.832 
04:10	29.5	29.5	29.5	74	22.3	2	6	112	0.00	29.832 
04:15	29.7	29.7	29.7	74	22.4	3	9	90	0.00	29.829 
04:20	29.7	29.7	29.7	74	22.4	2	5	90	0.00	29.829 
04:25	29.8	29.8	29.8	74	22.5	2	6	112	0.00	29.829 
04:30	29.8	29.8	29.8	74	22.5	3	6	90	0.00	29.829 
04:35	29.8	29.8	29.8	74	22.5	3	5	90	0.00	29.829 
04:40	29.8	29.8	29.8	75	22.9	2	7	90	0.00	29.829 
04:45	29.8	29.8	29.8	75	22.9	2	6	112	0.00	29.827 
04:50	29.8	29.8	29.8	75	22.9	1	4	90	0.00	29.827 
04:55	29.8	29.8	29.8	76	23.2	2	9	90	0.00	29.827 
05:00	30.0	30.0	30.0	75	23.1	3	7	112	0.00	29.828 
05:05	30.0	30.0	30.0	75	23.1	3	7	90	0.00	29.828 
05:10	29.5	25.2	29.5	75	22.6	4	13	248	0.00	29.828 
05:15	28.2	23.7	28.2	80	22.8	4	10	248	0.00	29.854 
05:20	27.3	27.3	27.3	82	22.5	3	7	248	0.00	29.854 
05:25	26.9	26.9	26.9	84	22.7	2	9	248	0.00	29.854 
05:30	26.6	26.6	26.6	84	22.4	3	7	248	0.00	29.861 
05:35	26.4	26.4	26.4	85	22.5	2	5	248	0.00	29.861 
05:40	26.3	26.3	26.3	85	22.4	2	6	225	0.00	29.861 
05:45	26.3	26.3	26.3	84	22.1	2	6	248	0.00	29.865 
05:50	26.3	26.3	26.3	84	22.1	2	6	248	0.00	29.865 
05:55	26.3	26.3	26.3	84	22.1	1	5	248	0.00	29.865 
06:00	26.3	26.3	26.3	84	22.1	2	6	248	0.00	29.865 
06:05	26.3	26.3	26.3	84	22.1	1	3	248	0.00	29.865 
06:10	26.3	26.3	26.3	84	22.1	1	2	248	0.00	29.865 
06:15	26.3	26.3	26.3	84	22.1	2	6	248	0.00	29.869 
06:20	26.3	26.3	26.3	83	21.9	1	4	248	0.00	29.869 
06:25	26.3	26.3	26.3	83	21.9	1	4	248	0.00	29.869 
06:30	26.3	26.3	26.3	83	21.9	1	5	248	0.00	29.871 
06:35	26.3	26.3	26.3	82	21.6	1	4	225	0.00	29.871 
06:40	26.3	26.3	26.3	82	21.6	0	2	248	0.00	29.871 
06:45	26.3	26.3	26.3	81	21.3	1	4	248	0.00	29.874 
06:50	26.3	26.3	26.3	81	21.3	1	4	248	0.00	29.874 
06:55	26.4	26.4	26.4	80	21.1	0	2	248	0.00	29.874 
07:00	26.3	26.3	26.3	79	20.7	1	4	248	0.00	29.878 
07:05	26.3	26.3	26.3	79	20.7	1	3	248	0.00	29.878 
07:10	26.3	26.3	26.3	79	20.7	1	3	248	0.00	29.878 
07:15	26.3	26.3	26.3	78	20.4	1	6	270	0.00	29.885 
07:20	26.4	26.4	26.4	77	20.2	2	6	248	0.00	29.885 
07:25	26.6	26.6	26.6	75	19.8	2	5	248	0.00	29.885 
07:30	26.6	26.6	26.6	75	19.8	1	4	248	0.00	29.885 
07:35	26.6	26.6	26.6	73	19.1	1	6	248	0.00	29.885 
07:40	26.4	26.4	26.4	73	18.9	1	4	270	0.00	29.885 
07:45	26.4	26.4	26.4	72	18.6	0	3	248	0.00	29.884 
07:50	26.4	26.4	26.4	72	18.6	1	3	292	0.00	29.884 
07:55	26.4	26.4	26.4	72	18.6	1	3	292	0.00	29.884 
08:00	26.4	26.4	26.4	72	18.6	0	2	292	0.00	29.884 
08:05	26.4	26.4	26.4	72	18.6	0	2	292	0.00	29.884 
08:10	26.3	26.3	26.3	72	18.5	0	3	292	0.00	29.884 
08:15	26.3	26.3	26.3	72	18.5	1	3	112	0.00	29.888 
08:20	26.3	26.3	26.3	72	18.5	0	2	112	0.00	29.888 
08:25	26.3	26.3	26.3	72	18.5	0	2	292	0.00	29.888 
08:30	26.3	26.3	26.3	71	18.2	1	3	45	0.00	29.885 
08:35	26.4	26.4	26.4	70	18.0	1	3	112	0.00	29.885 
08:40	26.4	26.4	26.4	70	18.0	1	3	112	0.00	29.885 
08:45	26.7	26.7	26.7	69	17.9	1	4	112	0.00	29.887 
08:50	27.0	27.0	27.0	68	17.9	1	6	68	0.00	29.887 
08:55	27.2	27.2	27.2	67	17.7	1	3	112	0.00	29.887 
09:00	27.3	27.3	27.3	67	17.8	2	6	112	0.00	29.887 
09:05	27.6	27.6	27.6	66	17.8	2	9	90	0.00	29.887 
09:10	28.1	28.1	28.1	66	18.2	1	3	112	0.00	29.887 
09:15	28.4	28.4	28.4	66	18.5	2	6	112	0.00	29.887 
09:20	28.8	28.8	28.8	65	18.5	2	7	90	0.00	29.887 
09:25	29.0	29.0	29.0	67	19.4	1	5	90	0.00	29.887 
09:30	29.0	29.0	29.0	67	19.4	1	4	112	0.00	29.885 
09:35	29.0	29.0	29.0	67	19.4	2	11	112	0.00	29.885 
09:40	29.0	29.0	29.0	68	19.8	2	5	112	0.00	29.885 
09:45	29.1	29.1	29.1	67	19.5	3	6	90	0.00	29.887 
09:50	29.1	29.1	29.1	67	19.5	2	6	68	0.00	29.887 
09:55	29.3	29.3	29.3	67	19.7	2	7	90	0.00	29.887 
10:00	29.4	29.4	29.4	67	19.8	2	5	112	0.00	29.886 
10:05	29.5	29.5	29.5	66	19.6	3	9	90	0.00	29.886 
10:10	29.8	29.8	29.8	66	19.8	2	4	135	0.00	29.886 
10:15	30.0	30.0	30.0	65	19.7	3	9	112	0.00	29.886 
10:20	30.1	30.1	30.1	65	19.8	2	5	90	0.00	29.886 
10:25	30.3	30.3	30.3	65	20.0	2	7	90	0.00	29.886 
10:30	30.4	30.4	30.4	64	19.7	2	7	90	0.00	29.885 
10:35	30.6	30.6	30.6	63	19.5	2	5	112	0.00	29.885 
10:40	30.7	30.7	30.7	62	19.2	3	9	90	0.00	29.885 
10:45	30.9	30.9	30.9	62	19.4	2	5	90	0.00	29.883 
10:50	31.0	31.0	31.0	60	18.8	2	7	112	0.00	29.883 
10:55	31.2	31.2	31.2	59	18.6	2	6	90	0.00	29.883 
11:00	31.3	31.3	31.3	58	18.3	2	7	112	0.00	29.876 
11:05	31.5	31.5	31.5	56	17.6	3	9	112	0.00	29.876 
11:10	31.6	31.6	31.6	57	18.1	3	11	68	0.00	29.876 
11:15	31.8	31.8	31.8	58	18.7	2	6	292	0.00	29.869 
11:20	31.9	31.9	31.9	57	18.4	2	5	90	0.00	29.869 
11:25	32.1	32.1	32.1	58	19.0	2	5	90	0.00	29.869 
11:30	32.2	32.2	32.2	57	18.7	3	10	90	0.00	29.867 
11:35	32.2	32.2	32.2	58	19.1	3	9	90	0.00	29.867 
11:40	32.5	32.5	32.5	58	19.4	2	6	90	0.00	29.867 
11:45	32.5	32.5	32.5	58	19.4	3	7	90	0.00	29.861 
11:50	32.7	32.7	32.7	57	19.2	2	7	315	0.00	29.861 
11:55	32.9	32.9	32.9	58	19.8	3	6	68	0.00	29.861 
12:00	32.7	28.9	32.7	58	19.6	4	12	90	0.00	29.863 
12:05	32.5	28.7	32.5	57	19.0	4	10	68	0.00	29.863 
12:10	32.5	32.5	32.5	58	19.4	2	5	270	0.00	29.863 
12:15	32.4	32.4	32.4	58	19.3	3	6	112	0.00	29.859 
12:20	32.1	28.2	32.1	58	19.0	4	10	90	0.00	29.859 
12:25	31.9	31.9	31.9	59	19.2	3	10	112	0.00	29.859 
12:30	31.9	31.9	31.9	61	20.0	1	5	292	0.00	29.854 
12:35	31.9	31.9	31.9	60	19.6	3	11	90	0.00	29.854 
12:40	31.9	31.9	31.9	61	20.0	3	11	90	0.00	29.854 
12:45	31.9	31.9	31.9	61	20.0	2	4	68	0.00	29.850 
12:50	31.9	31.9	31.9	62	20.4	2	6	112	0.00	29.850 
12:55	31.9	31.9	31.9	62	20.4	1	4	248	0.00	29.850 
13:00	31.9	31.9	31.9	62	20.4	1	4	270	0.00	29.845 
13:05	32.1	32.1	32.1	62	20.6	2	4	112	0.00	29.845 
13:10	32.1	32.1	32.1	61	20.2	3	9	68	0.00	29.845 
13:15	32.1	32.1	32.1	61	20.2	2	5	270	0.00	29.843 
13:20	32.1	32.1	32.1	61	20.2	2	6	90	0.00	29.843 
13:25	32.1	32.1	32.1	61	20.2	2	7	68	0.00	29.843 
13:30	32.1	32.1	32.1	60	19.8	3	11	270	0.00	29.839 
13:35	32.1	32.1	32.1	60	19.8	3	12	90	0.00	29.839 
13:40	32.1	32.1	32.1	61	20.2	2	5	248	0.00	29.839 
13:45	31.9	31.9	31.9	62	20.4	2	6	90	0.00	29.838 
13:50	31.9	31.9	31.9	62	20.4	2	9	270	0.00	29.838 
13:55	32.1	32.1	32.1	62	20.6	2	6	248	0.00	29.838 
14:00	32.2	32.2	32.2	61	20.3	2	7	270	0.00	29.838 
14:05	32.4	32.4	32.4	60	20.1	2	10	248	0.00	29.838 
14:10	32.4	32.4	32.4	61	20.5	1	3	248	0.00	29.838 
14:15	32.5	32.5	32.5	60	20.2	2	9	248	0.00	29.835 
14:20	32.4	32.4	32.4	60	20.1	3	7	248	0.00	29.835 
14:25	32.4	32.4	32.4	61	20.5	2	6	248	0.00	29.835 
14:30	32.5	32.5	32.5	62	20.9	1	4	292	0.00	29.835 
14:35	32.5	32.5	32.5	61	20.6	2	5	90	0.00	29.835 
14:40	32.5	32.5	32.5	61	20.6	2	9	292	0.00	29.835 
14:45	32.7	32.7	32.7	62	21.1	2	6	315	0.00	29.836 
14:50	32.7	32.7	32.7	62	21.1	1	4	270	0.00	29.836 
14:55	32.7	32.7	32.7	61	20.8	2	6	248	0.00	29.836 
15:00	32.7	32.7	32.7	61	20.8	2	9	270	0.00	29.837 
15:05	32.7	32.7	32.7	60	20.4	3	7	90	0.00	29.837 
15:10	32.7	32.7	32.7	62	21.1	2	6	112	0.00	29.837 
15:15	32.7	32.7	32.7	61	20.8	2	5	90	0.00	29.838 
15:20	32.7	32.7	32.7	61	20.8	3	10	68	0.00	29.838 
15:25	32.7	32.7	32.7	62	21.1	2	9	90	0.00	29.838 
15:30	32.8	32.8	32.8	62	21.2	1	5	292	0.00	29.836 
15:35	32.8	32.8	32.8	62	21.2	2	7	90	0.00	29.836 
15:40	32.9	32.9	32.9	61	20.9	1	3	112	0.00	29.836 
15:45	32.8	32.8	32.8	61	20.9	2	10	292	0.00	29.837 
15:50	32.8	32.8	32.8	62	21.2	1	3	270	0.00	29.837 
15:55	32.8	32.8	32.8	62	21.2	1	4	270	0.00	29.837 
16:00	32.7	32.7	32.7	62	21.1	1	6	225	0.00	29.842 
16:05	32.5	32.5	32.5	62	20.9	2	6	248	0.00	29.842 
16:10	32.5	32.5	32.5	62	20.9	2	9	338	0.00	29.842 
16:15	32.7	32.7	32.7	63	21.5	1	3	112	0.00	29.848 
16:20	32.7	32.7	32.7	63	21.5	1	6	270	0.00	29.848 
16:25	32.7	32.7	32.7	63	21.5	2	6	90	0.00	29.848 
16:30	32.5	32.5	32.5	64	21.7	2	5	270	0.00	29.851 
16:35	32.4	32.4	32.4	65	22.0	1	4	292	0.00	29.851 
16:40	32.4	32.4	32.4	66	22.3	1	6	248	0.00	29.851 
16:45	32.2	32.2	32.2	67	22.5	1	5	202	0.00	29.853 
16:50	32.1	32.1	32.1	67	22.4	1	4	270	0.00	29.853 
16:55	32.1	32.1	32.1	67	22.4	1	3	112	0.00	29.853 
17:00	32.1	32.1	32.1	66	22.0	2	4	90	0.00	29.855 
17:05	32.1	32.1	32.1	66	22.0	2	5	112	0.00	29.855 
17:10	32.1	32.1	32.1	66	22.0	1	6	90	0.00	29.855 
17:15	32.1	32.1	32.1	66	22.0	2	6	90	0.00	29.861 
17:20	32.1	32.1	32.1	66	22.0	2	5	90	0.00	29.861 
17:25	32.1	32.1	32.1	67	22.4	1	5	90	0.00	29.861 
17:30	32.1	32.1	32.1	68	22.7	2	6	112	0.00	29.866 
17:35	31.9	31.9	31.9	68	22.6	1	5	90	0.00	29.866 
17:40	31.9	31.9	31.9	68	22.6	1	4	112	0.00	29.866 
17:45	31.9	31.9	31.9	69	22.9	2	5	292	0.00	29.867 
17:50	31.9	31.9	31.9	69	22.9	1	3	112	0.00	29.867 
17:55	31.9	31.9	31.9	69	22.9	0	1	68	0.00	29.867 
18:00	31.9	31.9	31.9	70	23.2	2	7	248	0.00	29.868 
18:05	31.8	31.8	31.8	70	23.2	1	2	248	0.00	29.868 
18:10	31.9	31.9	31.9	69	22.9	2	7	248	0.00	29.868 
18:15	32.1	32.1	32.1	69	23.1	2	5	248	0.00	29.867 
18:20	31.9	31.9	31.9	70	23.2	2	6	248	0.00	29.867 
18:25	31.9	31.9	31.9	71	23.6	1	6	248	0.00	29.867 
18:30	31.8	31.8	31.8	71	23.5	1	7	248	0.00	29.870 
18:35	31.9	31.9	31.9	71	23.6	1	6	248	0.00	29.870 
18:40	31.9	31.9	31.9	72	23.9	2	6	270	0.00	29.870 
18:45	31.8	31.8	31.8	73	24.1	2	5	248	0.00	29.873 
18:50	31.5	31.5	31.5	75	24.5	2	6	225	0.00	29.873 
18:55	31.2	31.2	31.2	77	24.8	1	4	270	0.00	29.873 
19:00	31.0	31.0	31.0	79	25.3	1	3	248	0.00	29.876 
19:05	30.9	30.9	30.9	80	25.5	1	3	248	0.00	29.876 
19:10	30.7	30.7	30.7	81	25.6	0	2	248	0.00	29.876 
19:15	30.6	30.6	30.6	81	25.5	0	2	248	0.00	29.872 
19:20	30.6	30.6	30.6	81	25.5	0	2	248	0.00	29.872 
19:25	30.6	30.6	30.6	82	25.8	1	3	90	0.00	29.872 
19:30	30.6	30.6	30.6	82	25.8	1	3	90	0.00	29.872 
19:35	30.6	30.6	30.6	82	25.8	1	3	45	0.00	29.872 
19:40	30.6	30.6	30.6	83	26.1	0	2	338	0.00	29.872 
19:45	30.4	30.4	30.4	83	25.9	0	4	248	0.00	29.873 
19:50	30.3	30.3	30.3	83	25.8	1	5	90	0.00	29.873 
19:55	30.3	30.3	30.3	83	25.8	0	3	248	0.00	29.873 
20:00	30.3	30.3	30.3	84	26.1	0	2	225	0.00	29.873 
20:05	30.3	30.3	30.3	84	26.1	0	5	270	0.00	29.873 
20:10	30.3	30.3	30.3	84	26.1	0	2	270	0.00	29.873 
20:15	30.3	30.3	30.3	84	26.1	1	3	248	0.00	29.873 
20:20	30.3	30.3	30.3	84	26.1	1	3	22	0.00	29.873 
20:25	30.3	30.3	30.3	84	26.1	1	5	315	0.00	29.873 
20:30	30.3	30.3	30.3	84	26.1	0	1	248	0.00	29.873 
20:35	30.1	30.1	30.1	84	25.9	1	5	248	0.00	29.873 
20:40	30.1	30.1	30.1	85	26.1	1	4	112	0.00	29.873 
20:45	30.1	30.1	30.1	85	26.1	0	4	270	0.00	29.873 
20:50	30.1	30.1	30.1	85	26.1	1	3	248	0.00	29.873 
20:55	30.1	30.1	30.1	85	26.1	1	5	248	0.00	29.873 
21:00	30.0	30.0	30.0	85	26.0	1	4	90	0.00	29.873 
21:05	30.0	30.0	30.0	85	26.0	1	4	270	0.00	29.873 
21:10	30.0	30.0	30.0	85	26.0	0	3	248	0.00	29.873 
21:15	30.0	30.0	30.0	85	26.0	1	3	248	0.00	29.871 
21:20	30.0	30.0	30.0	85	26.0	1	3	248	0.00	29.871 
21:25	30.0	30.0	30.0	85	26.0	1	5	225	0.00	29.871 
21:30	30.1	30.1	30.1	85	26.1	1	7	270	0.00	29.870 
21:35	30.1	30.1	30.1	85	26.1	2	5	248	0.00	29.870 
21:40	30.1	30.1	30.1	84	25.9	2	5	248	0.00	29.870 
21:45	30.1	30.1	30.1	84	25.9	3	7	248	0.00	29.871 
21:50	30.1	30.1	30.1	83	25.6	2	9	248	0.00	29.871 
21:55	30.0	30.0	30.0	83	25.5	2	9	248	0.00	29.871 
22:00	29.8	29.8	29.8	82	25.0	3	9	248	0.00	29.872 
22:05	29.5	24.1	29.5	81	24.4	5	12	248	0.00	29.872 
22:10	29.4	25.1	29.4	80	24.0	4	10	248	0.00	29.872 
22:15	29.4	29.4	29.4	79	23.7	3	8	248	0.00	29.870 
22:20	29.3	29.3	29.3	78	23.3	3	9	248	0.00	29.870 
22:25	29.3	29.3	29.3	77	23.0	3	9	248	0.00	29.870 
22:30	29.1	29.1	29.1	76	22.5	3	9	248	0.00	29.872 
22:35	29.1	29.1	29.1	74	21.9	3	5	248	0.00	29.872 
22:40	29.1	29.1	29.1	74	21.9	2	5	248	0.00	29.872 
22:45	29.0	23.6	29.0	71	20.8	5	13	248	0.00	29.878 
22:50	29.0	24.6	29.0	71	20.8	4	10	270	0.00	29.878 
22:55	28.8	24.4	28.8	71	20.6	4	12	248	0.00	29.878 
23:00	28.7	24.3	28.7	71	20.5	4	9	248	0.00	29.885 
23:05	28.7	24.3	28.7	71	20.5	4	10	248	0.00	29.885 
23:10	28.5	24.0	28.5	72	20.6	4	8	248	0.00	29.885 
23:15	28.4	28.4	28.4	72	20.5	2	10	225	0.00	29.886 
23:20	28.1	22.5	28.1	68	18.9	5	13	248	0.00	29.886 
23:25	27.9	27.9	27.9	68	18.7	3	7	270	0.00	29.886 
23:30	27.8	27.8	27.8	68	18.6	2	6	248	0.00	29.888 
23:35	27.6	27.6	27.6	69	18.8	2	6	248	0.00	29.888 
23:40	27.6	27.6	27.6	68	18.4	3	9	248	0.00	29.888 
23:45	27.6	27.6	27.6	69	18.8	2	7	248	0.00	29.888 
23:50	27.5	27.5	27.5	69	18.7	2	8	248	0.00	29.888 
23:55	27.3	27.3	27.3	69	18.5	2	5	270	0.00	29.888 

CoCoRaHS
IN-AL-39
A2 Web Hosting
Creative Commons License
GoDaddy
search engine by freefind advanced

loaded 2018-11-17 15:17:18 • last modified 2010-11-18 10:43:29
Privacy PolicyDisclaimer
• wx.awcolley.com is powered by PmWiki v.2002016 •
• all content (unless otherwise noted) © 2018 A W Colley